Time;durP1;ratioP1;P1;durP2;ratioP2;P2;SDS_P1;SDS_P2;PMS_P1;PMS_P2;Temp;Humidity;BMP_temperature;BMP_pressure;BME280_temperature;BME280_humidity;BME280_pressure;Samples;Min_cycle;Max_cycle;Signal;HPM_P1;HPM_P2
2021/08/13 00:00:24;;;;;;;17.08;10.80;;;;;;;;;;5020247;28;20077;-64
2021/08/13 00:02:50;;;;;;;17.95;10.40;;;;;;;;;;5023904;28;20045;-64
2021/08/13 00:05:17;;;;;;;13.30;10.65;;;;;;;;;;5021376;28;20128;-64
2021/08/13 00:07:44;;;;;;;13.25;11.30;;;;;;;;;;5023549;28;20508;-64
2021/08/13 00:10:10;;;;;;;22.52;12.07;;;;;;;;;;5022226;28;20084;-64
2021/08/13 00:12:37;;;;;;;17.35;11.98;;;;;;;;;;5019905;28;20076;-64
2021/08/13 00:15:04;;;;;;;17.17;12.15;;;;;;;;;;5023816;28;20132;-63
2021/08/13 00:17:31;;;;;;;17.75;11.82;;;;;;;;;;5025063;28;20056;-64
2021/08/13 00:19:57;;;;;;;18.42;11.88;;;;;;;;;;5024693;28;20136;-64
2021/08/13 00:22:24;;;;;;;15.35;11.63;;;;;;;;;;5024458;28;20784;-64
2021/08/13 00:24:51;;;;;;;14.03;11.97;;;;;;;;;;5024214;28;20124;-64
2021/08/13 00:27:18;;;;;;;13.40;10.93;;;;;;;;;;5026243;28;20547;-63
2021/08/13 00:29:44;;;;;;;13.83;9.93;;;;;;;;;;5024464;28;20483;-63
2021/08/13 00:32:11;;;;;;;13.20;8.77;;;;;;;;;;5022265;28;20081;-63
2021/08/13 00:34:38;;;;;;;13.50;8.97;;;;;;;;;;5021642;28;20152;-63
2021/08/13 00:37:05;;;;;;;15.27;10.77;;;;;;;;;;5025005;28;20332;-64
2021/08/13 00:39:32;;;;;;;15.05;11.40;;;;;;;;;;5024231;28;20081;-63
2021/08/13 00:41:58;;;;;;;19.80;11.77;;;;;;;;;;5025228;28;20064;-63
2021/08/13 00:44:25;;;;;;;16.02;11.77;;;;;;;;;;5023184;28;20086;-63
2021/08/13 00:46:52;;;;;;;12.47;11.17;;;;;;;;;;5020300;28;20068;-63
2021/08/13 00:49:18;;;;;;;17.50;11.38;;;;;;;;;;5021500;28;20042;-63
2021/08/13 00:51:44;;;;;;;14.38;12.05;;;;;;;;;;5023903;28;20073;-63
2021/08/13 00:54:12;;;;;;;23.77;13.30;;;;;;;;;;5024028;28;20450;-63
2021/08/13 00:56:38;;;;;;;16.10;10.80;;;;;;;;;;5023091;28;20068;-63
2021/08/13 00:59:07;;;;;;;17.85;11.98;;;;;;;;;;5026022;28;20140;-63
2021/08/13 01:01:33;;;;;;;13.23;10.15;;;;;;;;;;5021392;28;20103;-63
2021/08/13 01:04:00;;;;;;;18.10;10.13;;;;;;;;;;5017778;28;20506;-63
2021/08/13 01:06:26;;;;;;;12.03;9.37;;;;;;;;;;5023719;28;20084;-64
2021/08/13 01:08:53;;;;;;;14.60;9.68;;;;;;;;;;5020962;28;20141;-64
2021/08/13 01:11:43;;;;;;;14.27;9.88;;;;;;;;;;5020233;28;20132;-64
2021/08/13 01:14:29;;;;;;;16.90;9.95;;;;;;;;;;5021460;28;20053;-63
2021/08/13 01:16:56;;;;;;;17.67;10.70;;;;;;;;;;5021631;28;20073;-64
2021/08/13 01:19:28;;;;;;;16.65;12.25;;;;;;;;;;5024260;28;20133;-64
2021/08/13 01:22:00;;;;;;;13.68;11.75;;;;;;;;;;5014792;28;20077;-63
2021/08/13 01:24:30;;;;;;;19.98;11.70;;;;;;;;;;5023961;28;20073;-63
2021/08/13 01:27:01;;;;;;;16.88;11.85;;;;;;;;;;5024022;28;20087;-63
2021/08/13 01:29:35;;;;;;;17.65;11.52;;;;;;;;;;5021488;28;20052;-63
2021/08/13 01:32:17;;;;;;;15.82;14.13;;;;;;;;;;5025854;28;20128;-63
2021/08/13 01:34:45;;;;;;;18.58;14.00;;;;;;;;;;5020570;28;20136;-63
2021/08/13 01:37:13;;;;;;;14.07;12.07;;;;;;;;;;5020454;28;20136;-64
2021/08/13 01:39:40;;;;;;;14.10;11.32;;;;;;;;;;5021410;28;20453;-63
2021/08/13 01:42:06;;;;;;;18.33;12.10;;;;;;;;;;5020318;28;20129;-63
2021/08/13 01:44:34;;;;;;;21.08;12.70;;;;;;;;;;5022068;28;20172;-63
2021/08/13 01:47:00;;;;;;;24.23;14.23;;;;;;;;;;5022427;28;20498;-63
2021/08/13 01:49:27;;;;;;;16.23;11.93;;;;;;;;;;5020430;28;20318;-63
2021/08/13 01:51:59;;;;;;;10.82;9.73;;;;;;;;;;5021415;28;20391;-63
2021/08/13 01:54:26;;;;;;;23.55;14.52;;;;;;;;;;5021747;28;20041;-63
2021/08/13 01:56:54;;;;;;;14.57;11.05;;;;;;;;;;5023950;28;20057;-64
2021/08/13 01:59:21;;;;;;;14.18;10.98;;;;;;;;;;5021040;28;20080;-63
2021/08/13 02:01:48;;;;;;;19.58;13.63;;;;;;;;;;5022318;28;20149;-63
2021/08/13 02:04:21;;;;;;;15.43;12.65;;;;;;;;;;5020203;28;20061;-64
2021/08/13 02:06:48;;;;;;;19.58;13.73;;;;;;;;;;5023418;28;20507;-63
2021/08/13 02:09:15;;;;;;;22.58;14.98;;;;;;;;;;5021919;28;20128;-64
2021/08/13 02:11:42;;;;;;;22.83;15.20;;;;;;;;;;5020296;28;20060;-63
2021/08/13 02:14:09;;;;;;;20.40;15.80;;;;;;;;;;5023765;28;20073;-64
2021/08/13 02:16:36;;;;;;;22.77;16.37;;;;;;;;;;5021269;28;20620;-63
2021/08/13 02:19:09;;;;;;;19.92;14.00;;;;;;;;;;5020218;28;20822;-63
2021/08/13 02:21:37;;;;;;;17.63;11.32;;;;;;;;;;5023723;28;20091;-64
2021/08/13 02:24:04;;;;;;;17.05;12.23;;;;;;;;;;5025649;28;20136;-63
2021/08/13 02:26:30;;;;;;;20.75;12.73;;;;;;;;;;5026450;28;20499;-63
2021/08/13 02:28:57;;;;;;;20.85;14.40;;;;;;;;;;5024054;28;20132;-63
2021/08/13 02:31:23;;;;;;;17.75;14.40;;;;;;;;;;5027933;28;20150;-63
2021/08/13 02:33:49;;;;;;;22.00;11.90;;;;;;;;;;5027264;28;20045;-63
2021/08/13 02:36:21;;;;;;;26.83;17.87;;;;;;;;;;5024650;28;20084;-64
2021/08/13 02:38:55;;;;;;;24.92;16.92;;;;;;;;;;5025723;28;20388;-63
2021/08/13 02:41:22;;;;;;;34.15;18.10;;;;;;;;;;5027614;28;20164;-63
2021/08/13 02:43:54;;;;;;;29.80;19.20;;;;;;;;;;5025453;28;20073;-63
2021/08/13 02:46:22;;;;;;;23.77;17.95;;;;;;;;;;5027659;28;20084;-63
2021/08/13 02:48:51;;;;;;;20.90;16.08;;;;;;;;;;5027191;28;20038;-64
2021/08/13 02:51:19;;;;;;;30.67;21.05;;;;;;;;;;5023811;28;20572;-64
2021/08/13 02:53:45;;;;;;;;;;;;;;;;;;5025794;28;20093;-63
2021/08/13 02:56:13;;;;;;;29.23;20.80;;;;;;;;;;5022157;28;20016;-64
2021/08/13 02:58:40;;;;;;;;;;;;;;;;;;5025532;28;20128;-63
2021/08/13 03:01:07;;;;;;;26.40;20.02;;;;;;;;;;5024430;28;20390;-63
2021/08/13 03:03:35;;;;;;;39.38;24.13;;;;;;;;;;5021337;28;20048;-64
2021/08/13 03:06:02;;;;;;;28.50;20.75;;;;;;;;;;5026285;28;20075;-63
2021/08/13 03:08:29;;;;;;;;;;;;;;;;;;5026412;28;20138;-63
2021/08/13 03:10:57;;;;;;;30.55;20.90;;;;;;;;;;5024205;28;19971;-63
2021/08/13 03:13:24;;;;;;;29.60;22.67;;;;;;;;;;5023060;28;20573;-63
2021/08/13 03:15:52;;;;;;;36.75;24.20;;;;;;;;;;5026351;28;20099;-64
2021/08/13 03:18:19;;;;;;;36.97;25.98;;;;;;;;;;5023747;28;20104;-63
2021/08/13 03:20:46;;;;;;;42.37;28.60;;;;;;;;;;5026254;28;20131;-63
2021/08/13 03:23:12;;;;;;;43.53;28.30;;;;;;;;;;5019459;28;20743;-63
2021/08/13 03:25:39;;;;;;;40.53;27.70;;;;;;;;;;5023743;28;20144;-63
2021/08/13 03:28:07;;;;;;;42.70;27.58;;;;;;;;;;5022170;28;20395;-63
2021/08/13 03:30:43;;;;;;;45.22;28.83;;;;;;;;;;5019863;28;20045;-63
2021/08/13 03:33:12;;;;;;;46.23;28.80;;;;;;;;;;5020628;28;20069;-63
2021/08/13 03:35:39;;;;;;;47.50;30.77;;;;;;;;;;5022202;28;20338;-63
2021/08/13 03:38:06;;;;;;;51.33;31.00;;;;;;;;;;5018946;28;20172;-63
2021/08/13 03:40:33;;;;;;;55.45;34.22;;;;;;;;;;5026592;28;20085;-63
2021/08/13 03:42:59;;;;;;;51.85;29.88;;;;;;;;;;5019952;28;20050;-63
2021/08/13 03:45:26;;;;;;;48.65;28.23;;;;;;;;;;5017910;28;20149;-63
2021/08/13 03:47:52;;;;;;;36.42;24.92;;;;;;;;;;5018099;28;20132;-63
2021/08/13 03:50:19;;;;;;;33.85;23.83;;;;;;;;;;5010337;28;20046;-63
2021/08/13 03:52:46;;;;;;;47.05;30.35;;;;;;;;;;5013809;28;20049;-63
2021/08/13 03:55:13;;;;;;;49.13;28.90;;;;;;;;;;5026205;28;20045;-63
2021/08/13 03:57:41;;;;;;;43.60;30.27;;;;;;;;;;5025378;28;20078;-63
2021/08/13 04:00:08;;;;;;;51.15;31.95;;;;;;;;;;5021381;28;20893;-63
2021/08/13 04:02:35;;;;;;;51.33;28.70;;;;;;;;;;5025137;28;20065;-63
2021/08/13 04:05:03;;;;;;;55.80;28.95;;;;;;;;;;5023636;28;20042;-63
2021/08/13 04:07:29;;;;;;;50.75;28.55;;;;;;;;;;5021448;28;20136;-63
2021/08/13 04:09:56;;;;;;;56.75;31.63;;;;;;;;;;5026036;28;20073;-63
2021/08/13 04:12:22;;;;;;;56.00;33.65;;;;;;;;;;5020294;28;20475;-63
2021/08/13 04:14:49;;;;;;;64.07;34.58;;;;;;;;;;5021403;28;20139;-63
2021/08/13 04:17:17;;;;;;;56.65;34.25;;;;;;;;;;5021237;28;20049;-63
2021/08/13 04:19:43;;;;;;;52.83;35.17;;;;;;;;;;5019868;28;20085;-63
2021/08/13 04:22:10;;;;;;;60.55;36.00;;;;;;;;;;5017655;28;20111;-64
2021/08/13 04:24:37;;;;;;;65.87;38.47;;;;;;;;;;5026536;28;20132;-64
2021/08/13 04:27:04;;;;;;;;;;;;;;;;;;5012369;28;20053;-63
2021/08/13 04:29:30;;;;;;;69.15;37.50;;;;;;;;;;5019874;28;19925;-63
2021/08/13 04:31:57;;;;;;;70.27;36.20;;;;;;;;;;5020562;28;20132;-63
2021/08/13 04:34:23;;;;;;;52.55;34.03;;;;;;;;;;5010702;28;20050;-64
2021/08/13 04:36:50;;;;;;;60.92;35.47;;;;;;;;;;5020546;28;20073;-64
2021/08/13 04:39:17;;;;;;;52.75;34.47;;;;;;;;;;5018221;28;20609;-63
2021/08/13 04:41:44;;;;;;;59.33;35.17;;;;;;;;;;5011501;28;20058;-64
2021/08/13 04:44:10;;;;;;;55.45;35.45;;;;;;;;;;5014042;28;20136;-64
2021/08/13 04:46:37;;;;;;;64.20;37.15;;;;;;;;;;5012173;28;20131;-63
2021/08/13 04:49:03;;;;;;;74.78;37.15;;;;;;;;;;5013642;28;20509;-63
2021/08/13 04:51:30;;;;;;;76.22;38.65;;;;;;;;;;5012543;28;20810;-64
2021/08/13 04:53:57;;;;;;;81.32;41.50;;;;;;;;;;5010695;28;20054;-63
2021/08/13 04:56:23;;;;;;;77.82;41.05;;;;;;;;;;5014158;28;20137;-64
2021/08/13 04:58:52;;;;;;;80.55;40.10;;;;;;;;;;5012660;28;20088;-63
2021/08/13 05:01:19;;;;;;;84.60;39.33;;;;;;;;;;5013542;28;20146;-63
2021/08/13 05:03:46;;;;;;;95.53;43.37;;;;;;;;;;5012199;28;20068;-63
2021/08/13 05:06:16;;;;;;;118.82;44.47;;;;;;;;;;5011666;28;20048;-63
2021/08/13 05:08:43;;;;;;;125.38;43.65;;;;;;;;;;5011711;28;20108;-63
2021/08/13 05:11:12;;;;;;;117.18;45.65;;;;;;;;;;5012905;28;20049;-63
2021/08/13 05:13:38;;;;;;;124.57;43.25;;;;;;;;;;5013082;28;20133;-64
2021/08/13 05:16:05;;;;;;;121.43;42.72;;;;;;;;;;5013212;28;20133;-64
2021/08/13 05:18:33;;;;;;;126.97;44.03;;;;;;;;;;5011779;28;20093;-64
2021/08/13 05:20:59;;;;;;;118.43;42.70;;;;;;;;;;5013506;28;20139;-64
2021/08/13 05:23:26;;;;;;;112.60;40.23;;;;;;;;;;5013503;28;20051;-64
2021/08/13 05:25:53;;;;;;;113.10;40.92;;;;;;;;;;5014017;28;21735;-64
2021/08/13 05:28:19;;;;;;;120.60;38.78;;;;;;;;;;5012995;28;20769;-64
2021/08/13 05:30:46;;;;;;;94.95;37.40;;;;;;;;;;5014773;28;20136;-64
2021/08/13 05:33:13;;;;;;;123.00;41.22;;;;;;;;;;5012465;28;21351;-64
2021/08/13 05:35:39;;;;;;;103.45;38.08;;;;;;;;;;5013308;28;20765;-64
2021/08/13 05:38:06;;;;;;;99.97;38.58;;;;;;;;;;5013508;28;20049;-64
2021/08/13 05:40:32;;;;;;;97.85;36.67;;;;;;;;;;5013121;28;20077;-64
2021/08/13 05:43:01;;;;;;;87.00;34.63;;;;;;;;;;5011491;28;20046;-65
2021/08/13 05:45:28;;;;;;;91.03;36.80;;;;;;;;;;5011576;28;20152;-64
2021/08/13 05:47:55;;;;;;;81.38;35.70;;;;;;;;;;5012665;28;20132;-64
2021/08/13 05:50:22;;;;;;;82.82;34.78;;;;;;;;;;5011594;28;20049;-64
2021/08/13 05:52:49;;;;;;;78.10;33.67;;;;;;;;;;5013329;28;20132;-64
2021/08/13 05:55:15;;;;;;;69.32;31.75;;;;;;;;;;5014905;28;20049;-64
2021/08/13 05:57:45;;;;;;;71.30;32.03;;;;;;;;;;5016646;28;20140;-64
2021/08/13 06:00:12;;;;;;;68.85;31.90;;;;;;;;;;5014280;28;20104;-64
2021/08/13 06:02:49;;;;;;;66.03;32.10;;;;;;;;;;5015948;28;20132;-64
2021/08/13 06:05:17;;;;;;;;;;;;;;;;;;5019524;28;20045;-64
2021/08/13 06:07:43;;;;;;;67.85;31.55;;;;;;;;;;5029385;28;20396;-64
2021/08/13 06:10:10;;;;;;;58.97;32.40;;;;;;;;;;5027888;28;20132;-64
2021/08/13 06:12:37;;;;;;;52.97;30.20;;;;;;;;;;5025018;28;20049;-64
2021/08/13 06:15:04;;;;;;;55.00;30.17;;;;;;;;;;5024544;28;20053;-64
2021/08/13 06:17:30;;;;;;;42.38;27.35;;;;;;;;;;5027410;28;20056;-64
2021/08/13 06:19:59;;;;;;;49.20;27.45;;;;;;;;;;5029863;28;20045;-64
2021/08/13 06:22:25;;;;;;;45.22;27.63;;;;;;;;;;5022810;28;20128;-64
2021/08/13 06:24:52;;;;;;;51.67;28.33;;;;;;;;;;5022499;28;20085;-64
2021/08/13 06:27:19;;;;;;;44.80;28.92;;;;;;;;;;5026882;28;20059;-64
2021/08/13 06:29:46;;;;;;;43.20;27.83;;;;;;;;;;5023217;28;20038;-64
2021/08/13 06:32:12;;;;;;;46.22;28.10;;;;;;;;;;5023915;28;20132;-64
2021/08/13 06:34:39;;;;;;;44.08;27.50;;;;;;;;;;5028259;28;20069;-64
2021/08/13 06:37:05;;;;;;;43.40;24.60;;;;;;;;;;5024635;28;20114;-64
2021/08/13 06:39:31;;;;;;;35.20;24.83;;;;;;;;;;5030905;28;20073;-64
2021/08/13 06:42:05;;;;;;;33.75;23.48;;;;;;;;;;5025902;28;20056;-64
2021/08/13 06:44:32;;;;;;;35.17;23.02;;;;;;;;;;5023748;28;20140;-64
2021/08/13 06:46:59;;;;;;;;;;;;;;;;;;5025305;28;20056;-64
2021/08/13 06:49:26;;;;;;;35.78;22.27;;;;;;;;;;5027183;28;19968;-65
2021/08/13 06:51:52;;;;;;;34.90;21.95;;;;;;;;;;5027795;28;20120;-64
2021/08/13 06:54:19;;;;;;;33.28;22.85;;;;;;;;;;5026298;28;21950;-64
2021/08/13 06:56:45;;;;;;;30.17;21.55;;;;;;;;;;5025784;28;20049;-64
2021/08/13 06:59:12;;;;;;;42.92;22.02;;;;;;;;;;5026232;28;20088;-64
2021/08/13 07:01:39;;;;;;;;;;;;;;;;;;5024844;28;20068;-64
2021/08/13 07:04:06;;;;;;;36.50;20.92;;;;;;;;;;5026912;28;19925;-64
2021/08/13 07:06:33;;;;;;;31.73;19.67;;;;;;;;;;5025777;28;20104;-64
2021/08/13 07:09:00;;;;;;;32.03;19.52;;;;;;;;;;5024954;28;20129;-64
2021/08/13 07:11:26;;;;;;;32.00;18.60;;;;;;;;;;5026039;28;20509;-64
2021/08/13 07:13:52;;;;;;;27.67;18.08;;;;;;;;;;5024928;28;20104;-64
2021/08/13 07:16:19;;;;;;;30.77;17.92;;;;;;;;;;5023367;28;20049;-64
2021/08/13 07:18:46;;;;;;;33.33;19.83;;;;;;;;;;5024192;28;20072;-64
2021/08/13 07:21:12;;;;;;;28.25;16.23;;;;;;;;;;5026279;28;20084;-64
2021/08/13 07:23:39;;;;;;;27.27;17.77;;;;;;;;;;5027016;28;20155;-64
2021/08/13 07:26:06;;;;;;;29.13;16.85;;;;;;;;;;5023868;28;20945;-64
2021/08/13 07:28:32;;;;;;;23.75;14.32;;;;;;;;;;5024367;28;20454;-64
2021/08/13 07:30:59;;;;;;;26.23;16.45;;;;;;;;;;5025737;28;20080;-64
2021/08/13 07:33:25;;;;;;;18.95;14.45;;;;;;;;;;5028782;28;20045;-64
2021/08/13 07:35:52;;;;;;;25.75;14.50;;;;;;;;;;5020387;28;20069;-64
2021/08/13 07:38:18;;;;;;;21.73;12.67;;;;;;;;;;5023961;28;20513;-64
2021/08/13 07:40:45;;;;;;;20.30;12.93;;;;;;;;;;5024884;28;20338;-64
2021/08/13 07:43:11;;;;;;;19.77;11.27;;;;;;;;;;5027988;28;20472;-64
2021/08/13 07:45:38;;;;;;;15.82;10.35;;;;;;;;;;5024880;28;20053;-64
2021/08/13 07:48:05;;;;;;;13.95;8.73;;;;;;;;;;5024381;28;20085;-64
2021/08/13 07:50:31;;;;;;;13.67;9.00;;;;;;;;;;5024502;28;20482;-64
2021/08/13 07:52:58;;;;;;;13.13;9.73;;;;;;;;;;5024253;28;20081;-64
2021/08/13 07:55:25;;;;;;;14.38;8.15;;;;;;;;;;5023967;28;20057;-64
2021/08/13 07:57:51;;;;;;;14.20;8.70;;;;;;;;;;5023747;28;20121;-64
2021/08/13 08:00:19;;;;;;;14.55;8.40;;;;;;;;;;5025297;28;20112;-64
2021/08/13 08:02:45;;;;;;;14.38;7.35;;;;;;;;;;5025053;28;20096;-63
2021/08/13 08:05:12;;;;;;;17.83;8.13;;;;;;;;;;5020516;28;20045;-64
2021/08/13 08:07:38;;;;;;;13.23;6.53;;;;;;;;;;5021933;28;20453;-64
2021/08/13 08:10:05;;;;;;;11.00;7.18;;;;;;;;;;5021577;28;20923;-64
2021/08/13 08:12:32;;;;;;;10.83;6.27;;;;;;;;;;5024668;28;20073;-64
2021/08/13 08:14:58;;;;;;;17.02;6.28;;;;;;;;;;5026696;28;20045;-64
2021/08/13 08:17:25;;;;;;;9.70;5.93;;;;;;;;;;5020047;28;20149;-64
2021/08/13 08:19:51;;;;;;;10.98;6.10;;;;;;;;;;5022157;28;20394;-64
2021/08/13 08:22:18;;;;;;;14.60;6.30;;;;;;;;;;5025823;28;20133;-64
2021/08/13 08:24:45;;;;;;;8.07;5.55;;;;;;;;;;5023877;28;20069;-64
2021/08/13 08:27:11;;;;;;;10.25;5.93;;;;;;;;;;5020749;28;20068;-64
2021/08/13 08:29:38;;;;;;;10.45;5.82;;;;;;;;;;5026596;28;20053;-64
2021/08/13 08:32:05;;;;;;;8.88;5.13;;;;;;;;;;5024400;28;20144;-64
2021/08/13 08:34:31;;;;;;;9.47;5.43;;;;;;;;;;5024375;28;20505;-64
2021/08/13 08:36:58;;;;;;;10.07;5.60;;;;;;;;;;5023821;28;20091;-64
2021/08/13 08:39:26;;;;;;;9.17;5.83;;;;;;;;;;5019790;28;20639;-64
2021/08/13 08:41:56;;;;;;;17.13;6.90;;;;;;;;;;5021739;28;20788;-64
2021/08/13 08:44:23;;;;;;;11.68;6.10;;;;;;;;;;5020616;28;20592;-64
2021/08/13 08:46:50;;;;;;;16.67;6.57;;;;;;;;;;5026660;28;20041;-64
2021/08/13 08:49:17;;;;;;;14.60;6.38;;;;;;;;;;5025935;28;20336;-64
2021/08/13 08:51:44;;;;;;;10.52;6.18;;;;;;;;;;5023032;28;20096;-64
2021/08/13 08:54:11;;;;;;;8.43;4.95;;;;;;;;;;5025189;28;20140;-64
2021/08/13 08:56:38;;;;;;;10.90;5.80;;;;;;;;;;5020899;28;20481;-64
2021/08/13 08:59:04;;;;;;;6.47;5.30;;;;;;;;;;5021692;28;20045;-64
2021/08/13 09:01:31;;;;;;;8.50;5.35;;;;;;;;;;5024356;28;20327;-64
2021/08/13 09:03:58;;;;;;;14.68;6.57;;;;;;;;;;5024348;28;20049;-64
2021/08/13 09:06:26;;;;;;;10.88;6.53;;;;;;;;;;5017970;28;20057;-64
2021/08/13 09:08:52;;;;;;;13.65;6.40;;;;;;;;;;5022299;28;20140;-64
2021/08/13 09:11:19;;;;;;;12.98;6.20;;;;;;;;;;5020134;28;20468;-64
2021/08/13 09:14:06;;;;;;;12.02;6.32;;;;;;;;;;5020905;28;20076;-64
2021/08/13 09:16:32;;;;;;;17.00;6.32;;;;;;;;;;5021837;28;20077;-64
2021/08/13 09:19:04;;;;;;;8.20;5.68;;;;;;;;;;5026911;28;20081;-64
2021/08/13 09:21:31;;;;;;;7.45;4.43;;;;;;;;;;5024280;28;20136;-64
2021/08/13 09:24:00;;;;;;;9.50;4.38;;;;;;;;;;5024013;28;20049;-64
2021/08/13 09:26:28;;;;;;;7.85;4.70;;;;;;;;;;5021803;28;20077;-64
2021/08/13 09:28:56;;;;;;;11.75;5.30;;;;;;;;;;5022890;28;20120;-64
2021/08/13 09:31:23;;;;;;;9.45;4.40;;;;;;;;;;5024105;28;20085;-64
2021/08/13 09:33:55;;;;;;;7.15;4.05;;;;;;;;;;5029040;28;20089;-64
2021/08/13 09:36:22;;;;;;;6.30;4.18;;;;;;;;;;5028850;28;20128;-64
2021/08/13 09:38:50;;;;;;;8.45;4.40;;;;;;;;;;5028429;28;20144;-64
2021/08/13 09:41:18;;;;;;;8.55;4.30;;;;;;;;;;5025406;28;20045;-64
2021/08/13 09:44:11;;;;;;;7.53;4.07;;;;;;;;;;5026612;28;20080;-64
2021/08/13 09:46:53;;;;;;;8.18;4.15;;;;;;;;;;5025381;28;20114;-64
2021/08/13 09:49:19;;;;;;;10.30;3.97;;;;;;;;;;5030628;28;20150;-64
2021/08/13 09:51:46;;;;;;;6.40;3.17;;;;;;;;;;5028667;28;20093;-63
2021/08/13 09:54:13;;;;;;;5.57;3.30;;;;;;;;;;5026184;28;20148;-64
2021/08/13 09:56:40;;;;;;;9.63;3.00;;;;;;;;;;5024855;28;20599;-64
2021/08/13 09:59:14;;;;;;;10.55;3.38;;;;;;;;;;5026134;28;20057;-64
2021/08/13 10:01:41;;;;;;;8.07;3.58;;;;;;;;;;5025038;28;20101;-64
2021/08/13 10:04:09;;;;;;;9.73;3.67;;;;;;;;;;5026457;28;20053;-64
2021/08/13 10:06:39;;;;;;;5.55;2.80;;;;;;;;;;5028599;28;20344;-64
2021/08/13 10:09:06;;;;;;;8.60;3.13;;;;;;;;;;5029862;28;20132;-64
2021/08/13 10:11:34;;;;;;;11.73;3.92;;;;;;;;;;5027276;28;20133;-64
2021/08/13 10:14:02;;;;;;;10.23;3.60;;;;;;;;;;5029195;28;20126;-64
2021/08/13 10:16:30;;;;;;;8.05;3.15;;;;;;;;;;5025495;28;20041;-63
2021/08/13 10:18:57;;;;;;;7.78;4.25;;;;;;;;;;5027463;28;20164;-64
2021/08/13 10:21:24;;;;;;;7.82;3.38;;;;;;;;;;5026074;28;20116;-63
2021/08/13 10:23:51;;;;;;;8.55;3.38;;;;;;;;;;5027091;28;20092;-64
2021/08/13 10:26:22;;;;;;;6.55;3.40;;;;;;;;;;5026998;28;20153;-64
2021/08/13 10:28:49;;;;;;;8.15;3.50;;;;;;;;;;5024288;28;20073;-64
2021/08/13 10:31:17;;;;;;;8.57;3.28;;;;;;;;;;5028266;28;20133;-64
2021/08/13 10:33:49;;;;;;;6.95;3.10;;;;;;;;;;5028126;28;20041;-64
2021/08/13 10:36:16;;;;;;;9.73;3.85;;;;;;;;;;5023882;28;20144;-64
2021/08/13 10:38:42;;;;;;;;;;;;;;;;;;5024073;28;20125;-63
2021/08/13 10:41:09;;;;;;;7.60;2.75;;;;;;;;;;5022833;28;20028;-63
2021/08/13 10:43:38;;;;;;;5.33;3.03;;;;;;;;;;5023336;28;20049;-64
2021/08/13 10:46:06;;;;;;;9.90;3.08;;;;;;;;;;5027782;28;20563;-64
2021/08/13 10:48:35;;;;;;;8.20;3.42;;;;;;;;;;5026933;28;20088;-64
2021/08/13 10:51:02;;;;;;;8.63;3.40;;;;;;;;;;5023491;28;20120;-64
2021/08/13 10:53:32;;;;;;;7.17;3.20;;;;;;;;;;5026951;28;20509;-63
2021/08/13 10:56:00;;;;;;;10.38;3.90;;;;;;;;;;5028438;28;20390;-64
2021/08/13 10:58:36;;;;;;;8.95;3.40;;;;;;;;;;5026289;28;20096;-64
2021/08/13 11:01:02;;;;;;;6.60;3.38;;;;;;;;;;5023433;28;20108;-64
2021/08/13 11:03:29;;;;;;;7.45;3.30;;;;;;;;;;5024309;28;20046;-64
2021/08/13 11:05:58;;;;;;;6.60;3.00;;;;;;;;;;5027068;28;20056;-64
2021/08/13 11:08:40;;;;;;;7.28;2.90;;;;;;;;;;5027100;28;20643;-64
2021/08/13 11:11:07;;;;;;;8.38;3.20;;;;;;;;;;5026261;28;20041;-63
2021/08/13 11:13:40;;;;;;;9.10;3.60;;;;;;;;;;5026365;28;20068;-64
2021/08/13 11:16:25;;;;;;;9.48;3.22;;;;;;;;;;5024559;28;20464;-64
2021/08/13 11:19:07;;;;;;;6.57;3.10;;;;;;;;;;5024633;28;20476;-63
2021/08/13 11:21:46;;;;;;;6.50;2.85;;;;;;;;;;5028472;28;20080;-64
2021/08/13 11:24:13;;;;;;;5.22;2.90;;;;;;;;;;5026200;28;20073;-64
2021/08/13 11:26:52;;;;;;;6.53;3.30;;;;;;;;;;5025771;28;20130;-64
2021/08/13 11:29:34;;;;;;;9.57;3.22;;;;;;;;;;5027041;28;20331;-64
2021/08/13 11:32:08;;;;;;;9.20;3.20;;;;;;;;;;5024530;28;20045;-64
2021/08/13 11:34:42;;;;;;;5.15;2.90;;;;;;;;;;5025103;28;20108;-64
2021/08/13 11:37:09;;;;;;;7.85;3.10;;;;;;;;;;5028238;28;20076;-64
2021/08/13 11:39:37;;;;;;;5.75;3.08;;;;;;;;;;5026443;28;20128;-64
2021/08/13 11:42:12;;;;;;;9.30;3.13;;;;;;;;;;5024543;28;20050;-64
2021/08/13 11:44:41;;;;;;;5.53;2.78;;;;;;;;;;5023103;28;20096;-64
2021/08/13 11:47:08;;;;;;;6.53;3.30;;;;;;;;;;5027218;28;20145;-64
2021/08/13 11:49:35;;;;;;;6.75;3.13;;;;;;;;;;5020202;28;20472;-64
2021/08/13 11:52:02;;;;;;;7.22;2.53;;;;;;;;;;5025081;28;20088;-64
2021/08/13 11:54:29;;;;;;;6.25;3.10;;;;;;;;;;5027233;28;20156;-64
2021/08/13 11:57:14;;;;;;;7.15;2.60;;;;;;;;;;5027561;28;20097;-64
2021/08/13 11:59:41;;;;;;;8.88;2.90;;;;;;;;;;5025488;28;20135;-64
2021/08/13 12:02:08;;;;;;;6.50;2.97;;;;;;;;;;5023194;28;20129;-64
2021/08/13 12:04:35;;;;;;;5.55;2.80;;;;;;;;;;5023240;28;20037;-64
2021/08/13 12:07:03;;;;;;;9.18;3.40;;;;;;;;;;5018715;28;20564;-64
2021/08/13 12:09:32;;;;;;;6.10;2.80;;;;;;;;;;5022222;28;20065;-64
2021/08/13 12:11:59;;;;;;;5.80;3.00;;;;;;;;;;5024758;28;20110;-63
2021/08/13 12:14:28;;;;;;;5.82;2.95;;;;;;;;;;5024310;28;20060;-64
2021/08/13 12:16:55;;;;;;;6.40;3.27;;;;;;;;;;5020647;28;20127;-64
2021/08/13 12:19:22;;;;;;;8.73;2.85;;;;;;;;;;5024955;28;20131;-64
2021/08/13 12:21:59;;;;;;;9.85;2.92;;;;;;;;;;5011281;28;20128;-64
2021/08/13 12:24:28;;;;;;;10.27;3.20;;;;;;;;;;5022940;28;20149;-64
2021/08/13 12:26:56;;;;;;;9.88;3.10;;;;;;;;;;5025805;28;20552;-64
2021/08/13 12:29:27;;;;;;;8.90;3.40;;;;;;;;;;5023232;28;20132;-64
2021/08/13 12:31:55;;;;;;;7.53;2.97;;;;;;;;;;5021542;28;20128;-64
2021/08/13 12:34:26;;;;;;;7.55;3.00;;;;;;;;;;5020065;28;20674;-64
2021/08/13 12:37:19;;;;;;;8.32;3.00;;;;;;;;;;5023874;28;20506;-66
2021/08/13 12:39:48;;;;;;;6.80;2.90;;;;;;;;;;5023029;28;20080;-64
2021/08/13 12:42:14;;;;;;;;;;;;;;;;;;5026784;28;20053;-63
2021/08/13 12:44:41;;;;;;;8.50;3.58;;;;;;;;;;5024965;28;19972;-64
2021/08/13 12:47:08;;;;;;;;;;;;;;;;;;5025474;28;20098;-64
2021/08/13 12:49:38;;;;;;;6.35;2.58;;;;;;;;;;5026519;28;19921;-64
2021/08/13 12:52:09;;;;;;;7.60;3.38;;;;;;;;;;5024400;28;20054;-64
2021/08/13 12:54:38;;;;;;;5.72;2.85;;;;;;;;;;5023714;28;20133;-64
2021/08/13 12:57:05;;;;;;;5.22;2.72;;;;;;;;;;5022872;28;20050;-64
2021/08/13 12:59:36;;;;;;;7.15;2.80;;;;;;;;;;5025003;28;20492;-63
2021/08/13 13:02:03;;;;;;;6.57;3.00;;;;;;;;;;5019549;28;20133;-64
2021/08/13 13:04:39;;;;;;;9.65;3.22;;;;;;;;;;5024419;28;20053;-64
2021/08/13 13:07:06;;;;;;;6.90;3.05;;;;;;;;;;5021356;28;20140;-64
2021/08/13 13:09:33;;;;;;;4.72;2.78;;;;;;;;;;5017367;28;20095;-63
2021/08/13 13:12:00;;;;;;;;;;;;;;;;;;5025718;28;20045;-64
2021/08/13 13:14:32;;;;;;;7.63;3.20;;;;;;;;;;5021978;28;19968;-64
2021/08/13 13:17:05;;;;;;;6.15;2.80;;;;;;;;;;5021252;28;20069;-64
2021/08/13 13:19:32;;;;;;;9.38;3.17;;;;;;;;;;5023460;28;20128;-64
2021/08/13 13:22:18;;;;;;;7.90;3.00;;;;;;;;;;5022437;28;20046;-64
2021/08/13 13:24:47;;;;;;;5.55;3.17;;;;;;;;;;5024018;28;20388;-64
2021/08/13 13:27:13;;;;;;;5.93;3.25;;;;;;;;;;5026963;28;20084;-64
2021/08/13 13:29:43;;;;;;;6.82;3.17;;;;;;;;;;5022453;28;20073;-64
2021/08/13 13:32:28;;;;;;;5.90;3.25;;;;;;;;;;5024421;28;20145;-64
2021/08/13 13:34:59;;;;;;;6.17;3.47;;;;;;;;;;5022041;28;20130;-64
2021/08/13 13:37:26;;;;;;;5.97;3.13;;;;;;;;;;5025804;28;20120;-64
2021/08/13 13:39:53;;;;;;;8.65;3.10;;;;;;;;;;5024734;28;20077;-64
2021/08/13 13:42:27;;;;;;;10.88;3.20;;;;;;;;;;5024195;28;22099;-64
2021/08/13 13:45:08;;;;;;;6.40;3.00;;;;;;;;;;5024893;28;20054;-64
2021/08/13 13:47:34;;;;;;;4.75;3.05;;;;;;;;;;5022961;28;20080;-64
2021/08/13 13:50:00;;;;;;;8.13;3.10;;;;;;;;;;5026852;28;20073;-64
2021/08/13 13:52:28;;;;;;;4.50;3.20;;;;;;;;;;5023526;28;20041;-64
2021/08/13 13:54:54;;;;;;;7.35;3.10;;;;;;;;;;5024912;28;20045;-64
2021/08/13 13:57:21;;;;;;;7.53;3.40;;;;;;;;;;5024282;28;20129;-64
2021/08/13 13:59:47;;;;;;;8.35;3.30;;;;;;;;;;5024477;28;20108;-64
2021/08/13 14:02:13;;;;;;;4.50;2.83;;;;;;;;;;5023295;28;20125;-64
2021/08/13 14:04:40;;;;;;;7.35;3.30;;;;;;;;;;5021932;28;20049;-64
2021/08/13 14:07:07;;;;;;;8.75;3.97;;;;;;;;;;5025682;28;20525;-64
2021/08/13 14:09:33;;;;;;;5.90;3.30;;;;;;;;;;5023240;28;20081;-64
2021/08/13 14:12:00;;;;;;;6.93;3.30;;;;;;;;;;5024351;28;20124;-64
2021/08/13 14:14:26;;;;;;;4.38;3.05;;;;;;;;;;5023502;28;20046;-64
2021/08/13 14:16:53;;;;;;;5.70;3.00;;;;;;;;;;5018703;28;20115;-64
2021/08/13 14:19:19;;;;;;;3.47;3.03;;;;;;;;;;5027764;28;20112;-64
2021/08/13 14:21:46;;;;;;;7.93;2.90;;;;;;;;;;5027679;28;20300;-64
2021/08/13 14:24:12;;;;;;;7.50;3.30;;;;;;;;;;5023321;28;20077;-64
2021/08/13 14:26:39;;;;;;;4.97;3.03;;;;;;;;;;5021299;28;20132;-64
2021/08/13 14:29:05;;;;;;;4.85;2.90;;;;;;;;;;5010756;28;20056;-64
2021/08/13 14:31:32;;;;;;;3.97;2.75;;;;;;;;;;5028932;28;20136;-64
2021/08/13 14:33:59;;;;;;;5.15;2.80;;;;;;;;;;5027097;28;20069;-64
2021/08/13 14:36:25;;;;;;;3.33;2.53;;;;;;;;;;5027644;28;20080;-64